createdAt,value
2022-09-14T00:00:14.993Z,11.93
2022-09-14T00:02:43.780Z,11.96
2022-09-14T00:05:12.715Z,11.91
2022-09-14T00:07:41.447Z,11.85
2022-09-14T00:10:11.025Z,11.69
2022-09-14T00:12:39.827Z,11.63
2022-09-14T00:15:09.635Z,11.56
2022-09-14T00:17:39.918Z,11.44
2022-09-14T00:20:09.552Z,11.46
2022-09-14T00:22:38.276Z,11.39
2022-09-14T00:25:07.991Z,11.33
2022-09-14T00:27:36.821Z,11.29
2022-09-14T00:30:06.479Z,11.16
2022-09-14T00:32:35.238Z,11.09
2022-09-14T00:35:05.718Z,10.99
2022-09-14T00:37:34.608Z,10.99
2022-09-14T00:40:04.007Z,10.92
2022-09-14T00:42:33.454Z,10.87
2022-09-14T00:45:17.450Z,10.85
2022-09-14T00:47:48.594Z,10.83
2022-09-14T00:50:19.450Z,10.85
2022-09-14T00:52:51.873Z,10.82
2022-09-14T00:55:24.319Z,10.78
2022-09-14T00:57:55.632Z,10.78
2022-09-14T01:00:29.478Z,10.76
2022-09-14T01:02:58.892Z,10.78
2022-09-14T01:05:43.363Z,10.85
2022-09-14T01:08:39.145Z,10.86
2022-09-14T01:11:21.550Z,10.87
2022-09-14T01:14:00.229Z,10.97
2022-09-14T01:16:38.860Z,11.00
2022-09-14T01:19:16.825Z,10.96
2022-09-14T01:21:48.425Z,10.93
2022-09-14T01:24:27.072Z,10.86
2022-09-14T01:27:33.352Z,10.92
2022-09-14T01:30:09.741Z,10.99
2022-09-14T01:32:44.549Z,11.11
2022-09-14T01:35:18.923Z,11.06
2022-09-14T01:37:52.282Z,11.03
2022-09-14T01:40:26.243Z,11.04
2022-09-14T01:43:00.287Z,11.11
2022-09-14T01:45:30.345Z,11.22
2022-09-14T01:48:04.217Z,11.19
2022-09-14T01:50:38.291Z,11.16
2022-09-14T01:53:11.249Z,11.11
2022-09-14T01:55:45.745Z,11.02
2022-09-14T01:58:20.108Z,10.97
2022-09-14T02:00:52.172Z,10.98
2022-09-14T02:03:26.950Z,10.98
2022-09-14T02:06:00.924Z,10.82
2022-09-14T02:08:31.917Z,10.69
2022-09-14T02:11:01.240Z,10.51
2022-09-14T02:13:31.590Z,10.48
2022-09-14T02:16:00.446Z,10.38
2022-09-14T02:18:29.629Z,10.31
2022-09-14T02:21:03.884Z,10.33
2022-09-14T02:23:33.520Z,10.33
2022-09-14T02:26:02.434Z,10.30
2022-09-14T02:28:32.786Z,10.31
2022-09-14T02:31:12.683Z,10.35
2022-09-14T02:33:49.645Z,10.39
2022-09-14T02:36:26.937Z,10.45
2022-09-14T02:39:02.998Z,10.51
2022-09-14T02:41:43.465Z,10.57
2022-09-14T02:44:21.200Z,10.56
2022-09-14T02:46:59.989Z,10.60
2022-09-14T02:49:34.824Z,10.61
2022-09-14T02:52:12.636Z,10.72
2022-09-14T02:54:47.908Z,10.78
2022-09-14T02:57:17.287Z,10.74
2022-09-14T02:59:47.384Z,10.76
2022-09-14T03:02:16.286Z,10.69
2022-09-14T03:04:45.197Z,10.74
2022-09-14T03:07:13.917Z,10.81
2022-09-14T03:09:42.658Z,10.78
2022-09-14T03:12:11.435Z,10.84
2022-09-14T03:14:40.200Z,10.93
2022-09-14T03:17:10.238Z,10.88
2022-09-14T03:19:41.303Z,10.94
2022-09-14T03:22:10.085Z,10.90
2022-09-14T03:24:38.926Z,10.94
2022-09-14T03:27:07.706Z,10.98
2022-09-14T03:29:36.474Z,10.99
2022-09-14T03:32:05.414Z,11.00
2022-09-14T03:34:35.503Z,11.01
2022-09-14T03:37:04.293Z,10.97
2022-09-14T03:39:33.091Z,10.97
2022-09-14T03:42:01.877Z,10.94
2022-09-14T03:44:30.642Z,10.95
2022-09-14T03:46:59.368Z,10.89
2022-09-14T03:49:28.146Z,10.95
2022-09-14T03:51:59.925Z,10.85
2022-09-14T03:54:28.813Z,10.82
2022-09-14T03:56:57.609Z,10.84
2022-09-14T03:59:26.754Z,10.72
2022-09-14T04:01:55.534Z,10.72
2022-09-14T04:04:24.453Z,10.76
2022-09-14T04:06:53.167Z,10.70
2022-09-14T04:09:23.296Z,10.58
2022-09-14T04:11:52.094Z,10.56
2022-09-14T04:14:21.043Z,10.60
2022-09-14T04:16:49.722Z,10.62
2022-09-14T04:19:18.683Z,10.58
2022-09-14T04:21:47.443Z,10.63
2022-09-14T04:24:16.680Z,10.67
2022-09-14T04:26:47.687Z,10.58
2022-09-14T04:29:16.410Z,10.58
2022-09-14T04:31:45.252Z,10.62
2022-09-14T04:34:14.903Z,10.72
2022-09-14T04:36:43.897Z,10.81
2022-09-14T04:39:15.350Z,10.85
2022-09-14T04:41:44.126Z,10.88
2022-09-14T04:44:14.614Z,10.88
2022-09-14T04:46:46.936Z,10.96
2022-09-14T04:49:16.765Z,11.08
2022-09-14T04:51:46.444Z,11.28
2022-09-14T04:54:17.432Z,11.54
2022-09-14T04:56:46.347Z,12.12
2022-09-14T04:59:16.684Z,12.76
2022-09-14T05:01:47.781Z,13.32
2022-09-14T05:04:17.068Z,13.59
2022-09-14T05:06:45.954Z,14.04
2022-09-14T05:09:16.643Z,14.24
2022-09-14T05:11:46.119Z,14.31
2022-09-14T05:14:16.518Z,14.28
2022-09-14T05:16:46.638Z,14.63
2022-09-14T05:19:18.182Z,15.46
2022-09-14T05:21:47.388Z,16.59
2022-09-14T05:24:17.667Z,17.55
2022-09-14T05:26:47.560Z,18.52
2022-09-14T05:29:20.206Z,19.43
2022-09-14T05:31:49.296Z,20.13
2022-09-14T05:34:18.420Z,20.88
2022-09-14T05:36:47.130Z,21.62
2022-09-14T05:39:19.764Z,22.11
2022-09-14T05:41:51.435Z,22.51
2022-09-14T05:44:21.635Z,23.08
2022-09-14T05:46:50.643Z,23.72
2022-09-14T05:49:19.557Z,24.28
2022-09-14T05:51:48.424Z,24.69
2022-09-14T05:54:17.167Z,25.17
2022-09-14T05:56:46.314Z,25.40
2022-09-14T05:59:15.167Z,25.79
2022-09-14T06:01:45.538Z,25.62
2022-09-14T06:04:14.369Z,25.63
2022-09-14T06:06:52.267Z,25.43
2022-09-14T06:09:33.320Z,25.38
2022-09-14T06:12:02.295Z,24.94
2022-09-14T06:14:31.036Z,25.34
2022-09-14T06:17:01.543Z,24.81
2022-09-14T06:19:30.157Z,25.39
2022-09-14T06:21:58.762Z,25.58
2022-09-14T06:24:27.505Z,25.78
2022-09-14T06:26:56.057Z,25.21
2022-09-14T06:29:24.719Z,25.58
2022-09-14T06:31:55.402Z,25.54
2022-09-14T06:34:25.772Z,25.00
2022-09-14T06:36:54.518Z,25.08
2022-09-14T06:39:23.292Z,24.63
2022-09-14T06:41:52.714Z,24.30
2022-09-14T06:44:21.222Z,24.14
2022-09-14T06:46:50.375Z,23.41
2022-09-14T06:49:23.152Z,23.53
2022-09-14T06:51:56.207Z,23.57
2022-09-14T06:54:25.130Z,23.75
2022-09-14T06:56:53.983Z,23.62
2022-09-14T06:59:22.606Z,23.47
2022-09-14T07:01:51.335Z,23.99
2022-09-14T07:04:20.509Z,23.94
2022-09-14T07:06:51.060Z,23.84
2022-09-14T07:09:21.711Z,24.02
2022-09-14T07:11:50.440Z,24.03
2022-09-14T07:14:20.355Z,23.98
2022-09-14T07:16:49.259Z,24.08
2022-09-14T07:19:18.320Z,24.06
2022-09-14T07:21:48.284Z,23.84
2022-09-14T07:24:17.219Z,24.00
2022-09-14T07:26:47.419Z,24.03
2022-09-14T07:29:17.840Z,24.01
2022-09-14T07:31:48.448Z,23.65
2022-09-14T07:34:17.917Z,23.72
2022-09-14T07:36:46.881Z,23.89
2022-09-14T07:39:17.357Z,23.92
2022-09-14T07:41:49.108Z,23.94
2022-09-14T07:44:19.357Z,24.13
2022-09-14T07:46:48.267Z,24.20
2022-09-14T07:49:17.988Z,24.27
2022-09-14T07:51:47.049Z,24.16
2022-09-14T07:54:17.774Z,24.46
2022-09-14T07:56:49.540Z,24.50
2022-09-14T07:59:38.712Z,24.58
2022-09-14T08:02:08.782Z,24.61
2022-09-14T08:04:39.514Z,24.78
2022-09-14T08:07:08.635Z,24.70
2022-09-14T08:09:37.449Z,24.80
2022-09-14T08:12:07.702Z,24.94
2022-09-14T08:14:37.117Z,25.05
2022-09-14T08:17:05.866Z,25.06
2022-09-14T08:19:34.632Z,25.13
2022-09-14T08:22:03.450Z,25.12
2022-09-14T08:24:33.622Z,25.31
2022-09-14T08:27:02.371Z,25.46
2022-09-14T08:29:32.602Z,25.06
2022-09-14T08:32:01.392Z,25.24
2022-09-14T08:34:30.243Z,25.82
2022-09-14T08:36:58.957Z,26.28
2022-09-14T08:39:27.659Z,26.15
2022-09-14T08:41:58.682Z,26.16
2022-09-14T08:44:30.123Z,26.49
2022-09-14T08:47:06.079Z,26.72
2022-09-14T08:49:46.322Z,26.82
2022-09-14T08:52:23.022Z,27.07
2022-09-14T08:54:55.768Z,27.15
2022-09-14T08:57:30.926Z,26.98
2022-09-14T09:00:08.094Z,27.07
2022-09-14T09:03:08.377Z,27.21
2022-09-14T09:05:41.770Z,27.33
2022-09-14T09:08:19.812Z,26.94
2022-09-14T09:10:49.503Z,27.35
2022-09-14T09:13:22.250Z,27.82
2022-09-14T09:15:54.732Z,27.44
2022-09-14T09:18:33.985Z,27.97
2022-09-14T09:21:07.885Z,28.09
2022-09-14T09:23:37.274Z,28.12
2022-09-14T09:26:11.509Z,28.14
2022-09-14T09:28:45.777Z,28.23
2022-09-14T09:31:16.300Z,28.31
2022-09-14T09:34:06.910Z,27.92
2022-09-14T09:36:40.882Z,28.14
2022-09-14T09:39:10.023Z,28.33
2022-09-14T09:41:46.463Z,28.63
2022-09-14T09:44:15.672Z,28.79
2022-09-14T09:46:50.152Z,28.96
2022-09-14T09:49:24.224Z,29.08
2022-09-14T09:51:54.594Z,28.91
2022-09-14T09:54:28.147Z,29.24
2022-09-14T09:56:59.160Z,29.44
2022-09-14T09:59:35.447Z,29.45
2022-09-14T10:02:27.895Z,29.20
2022-09-14T10:05:04.214Z,29.42
2022-09-14T10:07:35.961Z,29.48
2022-09-14T10:10:08.417Z,29.59
2022-09-14T10:12:38.953Z,29.48
2022-09-14T10:15:21.699Z,28.93
2022-09-14T10:18:18.712Z,29.46
2022-09-14T10:21:08.280Z,29.52
2022-09-14T10:23:38.712Z,29.76
2022-09-14T10:26:28.724Z,29.66
2022-09-14T10:29:26.401Z,30.01
2022-09-14T10:32:00.468Z,30.13
2022-09-14T10:34:29.996Z,30.26
2022-09-14T10:37:15.249Z,29.98
2022-09-14T10:39:52.004Z,30.08
2022-09-14T10:42:28.959Z,30.29
2022-09-14T10:45:10.420Z,30.28
2022-09-14T10:48:20.785Z,30.53
2022-09-14T10:50:59.336Z,30.69
2022-09-14T10:53:42.646Z,30.70
2022-09-14T10:56:20.160Z,30.86
2022-09-14T10:59:16.945Z,30.89
2022-09-14T11:02:20.407Z,31.32
2022-09-14T11:05:05.550Z,31.32
2022-09-14T11:07:40.366Z,31.15
2022-09-14T11:10:20.881Z,31.40
2022-09-14T11:13:04.017Z,31.86
2022-09-14T11:15:42.114Z,31.82
2022-09-14T11:18:21.792Z,31.54
2022-09-14T11:21:02.464Z,31.48
2022-09-14T11:23:42.496Z,31.57
2022-09-14T11:26:17.597Z,31.71
2022-09-14T11:28:51.476Z,31.65
2022-09-14T11:31:26.635Z,31.78
2022-09-14T11:34:00.532Z,31.69
2022-09-14T11:36:31.933Z,31.58
2022-09-14T11:39:07.285Z,31.48
2022-09-14T11:41:44.593Z,31.63
2022-09-14T11:44:18.862Z,31.99
2022-09-14T11:46:52.074Z,32.27
2022-09-14T11:49:31.001Z,32.55
2022-09-14T11:52:05.141Z,32.18
2022-09-14T11:54:34.020Z,32.44
2022-09-14T11:57:05.733Z,32.39
2022-09-14T11:59:53.181Z,32.50
2022-09-14T12:02:54.816Z,32.72
2022-09-14T12:05:33.505Z,32.57
2022-09-14T12:08:44.848Z,32.73
2022-09-14T12:11:32.071Z,33.10
2022-09-14T12:14:36.706Z,32.53
2022-09-14T12:17:22.776Z,33.39
2022-09-14T12:20:01.405Z,34.11
2022-09-14T12:22:35.902Z,34.11
2022-09-14T12:25:18.051Z,34.71
2022-09-14T12:27:50.118Z,35.22
2022-09-14T12:31:10.665Z,35.03
2022-09-14T12:34:27.283Z,35.44
2022-09-14T12:37:32.818Z,35.74
2022-09-14T12:40:36.634Z,34.41
2022-09-14T12:43:47.900Z,35.09
2022-09-14T12:46:36.868Z,35.33
2022-09-14T12:49:29.677Z,35.42
2022-09-14T12:52:00.818Z,35.99
2022-09-14T12:54:43.038Z,35.76
2022-09-14T12:57:28.025Z,35.07
2022-09-14T13:00:06.337Z,34.37
2022-09-14T13:03:09.750Z,33.88
2022-09-14T13:05:39.051Z,32.84
2022-09-14T13:08:12.766Z,32.60
2022-09-14T13:10:47.468Z,31.97
2022-09-14T13:13:19.297Z,31.56
2022-09-14T13:15:59.422Z,31.32
2022-09-14T13:18:36.075Z,30.81
2022-09-14T13:21:18.416Z,30.38
2022-09-14T13:23:47.588Z,30.22
2022-09-14T13:26:21.388Z,29.94
2022-09-14T13:28:52.429Z,29.80
2022-09-14T13:31:28.567Z,29.51
2022-09-14T13:33:59.256Z,29.17
2022-09-14T13:36:30.838Z,29.06
2022-09-14T13:39:01.712Z,28.88
2022-09-14T13:41:32.632Z,28.86
2022-09-14T13:44:01.889Z,28.74
2022-09-14T13:46:30.934Z,28.70
2022-09-14T13:49:02.596Z,28.43
2022-09-14T13:51:31.648Z,28.44
2022-09-14T13:54:18.457Z,28.51
2022-09-14T13:56:47.825Z,28.30
2022-09-14T13:59:22.005Z,28.19
2022-09-14T14:01:57.558Z,28.14
2022-09-14T14:04:35.816Z,28.18
2022-09-14T14:07:09.644Z,28.15
2022-09-14T14:09:47.164Z,28.10
2022-09-14T14:12:24.892Z,28.03
2022-09-14T14:15:01.918Z,27.95
2022-09-14T14:17:37.027Z,27.94
2022-09-14T14:20:36.398Z,27.90
2022-09-14T14:23:22.848Z,27.77
2022-09-14T14:25:54.540Z,27.82
2022-09-14T14:28:29.248Z,27.85
2022-09-14T14:30:59.728Z,27.79
2022-09-14T14:33:28.625Z,27.75
2022-09-14T14:35:59.024Z,27.62
2022-09-14T14:38:27.878Z,27.63
2022-09-14T14:40:58.234Z,27.61
2022-09-14T14:43:28.518Z,27.57
2022-09-14T14:46:00.895Z,27.51
2022-09-14T14:48:31.618Z,27.45
2022-09-14T14:51:02.198Z,27.33
2022-09-14T14:53:30.920Z,27.30
2022-09-14T14:55:59.767Z,27.28
2022-09-14T14:58:29.414Z,27.23
2022-09-14T15:00:58.501Z,27.21
2022-09-14T15:03:27.636Z,27.15
2022-09-14T15:05:56.538Z,26.94
2022-09-14T15:08:26.917Z,26.84
2022-09-14T15:10:58.433Z,26.83
2022-09-14T15:13:27.342Z,26.85
2022-09-14T15:15:56.264Z,26.76
2022-09-14T15:18:25.089Z,26.68
2022-09-14T15:20:53.975Z,26.64
2022-09-14T15:23:22.809Z,26.60
2022-09-14T15:25:54.346Z,26.50
2022-09-14T15:28:23.549Z,26.39
2022-09-14T15:30:53.191Z,26.32
2022-09-14T15:33:22.051Z,26.32
2022-09-14T15:35:56.500Z,26.26
2022-09-14T15:38:25.610Z,26.20
2022-09-14T15:40:55.850Z,26.16
2022-09-14T15:43:24.710Z,26.04
2022-09-14T15:45:53.638Z,26.05
2022-09-14T15:48:22.752Z,25.96
2022-09-14T15:50:51.545Z,25.93
2022-09-14T15:53:20.408Z,25.83
2022-09-14T15:55:49.188Z,25.83
2022-09-14T15:58:19.405Z,25.76
2022-09-14T16:00:48.367Z,25.64
2022-09-14T16:03:17.335Z,25.61
2022-09-14T16:05:46.333Z,25.54
2022-09-14T16:08:15.142Z,25.46
2022-09-14T16:10:44.173Z,25.37
2022-09-14T16:13:13.279Z,25.26
2022-09-14T16:15:43.547Z,25.19
2022-09-14T16:18:12.482Z,25.12
2022-09-14T16:20:41.411Z,25.03
2022-09-14T16:23:10.806Z,24.95
2022-09-14T16:25:40.905Z,24.83
2022-09-14T16:28:09.809Z,24.70
2022-09-14T16:30:38.627Z,24.58
2022-09-14T16:33:08.935Z,24.46
2022-09-14T16:35:38.045Z,24.38
2022-09-14T16:38:06.809Z,24.28
2022-09-14T16:40:41.056Z,23.94
2022-09-14T16:43:11.618Z,23.91
2022-09-14T16:45:41.065Z,23.78
2022-09-14T16:48:11.340Z,23.65
2022-09-14T16:50:40.227Z,23.62
2022-09-14T16:53:09.124Z,23.53
2022-09-14T16:55:37.963Z,23.43
2022-09-14T16:58:06.750Z,23.39
2022-09-14T17:00:36.543Z,23.40
2022-09-14T17:03:05.524Z,23.31
2022-09-14T17:05:35.828Z,23.23
2022-09-14T17:08:04.719Z,23.16
2022-09-14T17:10:35.859Z,23.06
2022-09-14T17:13:04.656Z,23.01
2022-09-14T17:15:33.347Z,22.93
2022-09-14T17:18:02.148Z,22.81
2022-09-14T17:20:30.870Z,22.66
2022-09-14T17:23:01.048Z,22.62
2022-09-14T17:25:30.082Z,22.46
2022-09-14T17:27:59.062Z,22.38
2022-09-14T17:30:27.859Z,22.28
2022-09-14T17:32:56.664Z,22.19
2022-09-14T17:35:25.568Z,22.07
2022-09-14T17:37:54.489Z,21.94
2022-09-14T17:40:24.793Z,21.92
2022-09-14T17:42:54.042Z,21.89
2022-09-14T17:45:22.983Z,21.84
2022-09-14T17:47:51.911Z,21.80
2022-09-14T17:50:21.297Z,21.40
2022-09-14T17:52:50.115Z,21.46
2022-09-14T17:55:19.576Z,21.32
2022-09-14T17:57:50.061Z,21.27
2022-09-14T18:00:19.345Z,21.27
2022-09-14T18:02:52.105Z,21.21
2022-09-14T18:05:21.000Z,21.11
2022-09-14T18:07:49.800Z,21.16
2022-09-14T18:10:19.388Z,21.11
2022-09-14T18:12:50.322Z,21.03
2022-09-14T18:15:19.517Z,20.87
2022-09-14T18:17:48.612Z,20.91
2022-09-14T18:20:17.508Z,20.73
2022-09-14T18:22:46.333Z,20.80
2022-09-14T18:25:15.210Z,20.59
2022-09-14T18:27:44.265Z,20.48
2022-09-14T18:30:15.283Z,20.48
2022-09-14T18:32:46.385Z,20.40
2022-09-14T18:35:16.877Z,20.39
2022-09-14T18:37:45.749Z,20.33
2022-09-14T18:40:18.253Z,20.32
2022-09-14T18:42:49.332Z,20.25
2022-09-14T18:45:19.735Z,20.33
2022-09-14T18:47:48.668Z,20.30
2022-09-14T18:50:19.310Z,20.14
2022-09-14T18:52:48.215Z,20.04
2022-09-14T18:55:17.316Z,19.94
2022-09-14T18:57:47.350Z,19.94
2022-09-14T19:00:18.764Z,19.83
2022-09-14T19:02:54.448Z,19.86
2022-09-14T19:05:24.542Z,19.80
2022-09-14T19:07:53.575Z,19.82
2022-09-14T19:10:22.964Z,19.81
2022-09-14T19:12:51.789Z,19.73
2022-09-14T19:15:20.641Z,19.77
2022-09-14T19:17:49.453Z,19.67
2022-09-14T19:20:22.417Z,19.64
2022-09-14T19:22:52.413Z,19.66
2022-09-14T19:25:21.433Z,19.67
2022-09-14T19:27:50.924Z,19.68
2022-09-14T19:30:20.045Z,19.70
2022-09-14T19:32:48.837Z,19.68
2022-09-14T19:35:17.893Z,19.75
2022-09-14T19:37:48.114Z,19.75
2022-09-14T19:40:17.020Z,19.68
2022-09-14T19:42:45.883Z,19.60
2022-09-14T19:45:16.619Z,19.65
2022-09-14T19:47:45.363Z,19.58
2022-09-14T19:50:14.128Z,19.52
2022-09-14T19:52:42.913Z,19.48
2022-09-14T19:55:13.150Z,19.48
2022-09-14T19:57:41.995Z,19.50
2022-09-14T20:00:16.247Z,19.49
2022-09-14T20:02:46.884Z,19.46
2022-09-14T20:05:16.054Z,19.41
2022-09-14T20:07:45.269Z,19.31
2022-09-14T20:10:15.887Z,19.34
2022-09-14T20:12:44.713Z,19.23
2022-09-14T20:15:13.584Z,19.21
2022-09-14T20:17:42.446Z,19.14
2022-09-14T20:20:12.029Z,19.12
2022-09-14T20:22:42.490Z,19.17
2022-09-14T20:25:11.289Z,19.14
2022-09-14T20:27:41.531Z,19.16
2022-09-14T20:30:11.456Z,19.16
2022-09-14T20:32:40.214Z,19.16
2022-09-14T20:35:09.956Z,19.15
2022-09-14T20:37:39.195Z,19.18
2022-09-14T20:40:10.000Z,18.98
2022-09-14T20:42:40.699Z,19.06
2022-09-14T20:45:10.973Z,19.00
2022-09-14T20:47:39.851Z,19.01
2022-09-14T20:50:09.284Z,19.07
2022-09-14T20:52:38.113Z,18.97
2022-09-14T20:55:08.293Z,18.68
2022-09-14T20:57:36.931Z,18.79
2022-09-14T21:00:08.652Z,18.69
2022-09-14T21:02:37.759Z,18.63
2022-09-14T21:05:08.035Z,18.60
2022-09-14T21:07:45.489Z,18.59
2022-09-14T21:10:14.398Z,18.50
2022-09-14T21:12:43.119Z,18.47
2022-09-14T21:15:13.460Z,18.45
2022-09-14T21:17:42.277Z,18.47
2022-09-14T21:20:11.415Z,18.49
2022-09-14T21:22:40.185Z,18.23
2022-09-14T21:25:11.585Z,18.28
2022-09-14T21:27:40.297Z,18.20
2022-09-14T21:30:10.337Z,18.27
2022-09-14T21:32:40.610Z,18.30
2022-09-14T21:35:10.098Z,18.24
2022-09-14T21:37:38.808Z,18.22
2022-09-14T21:40:09.098Z,18.22
2022-09-14T21:42:39.250Z,18.16
2022-09-14T21:45:08.772Z,18.18
2022-09-14T21:47:37.472Z,18.17
2022-09-14T21:50:08.795Z,18.18
2022-09-14T21:52:44.056Z,18.16
2022-09-14T21:55:13.747Z,18.19
2022-09-14T21:57:42.429Z,18.17
2022-09-14T22:00:12.178Z,18.16
2022-09-14T22:02:41.103Z,18.25
2022-09-14T22:05:12.199Z,18.26
2022-09-14T22:07:42.428Z,18.34
2022-09-14T22:10:11.674Z,18.50
2022-09-14T22:12:40.649Z,18.58
2022-09-14T22:15:10.385Z,18.73
2022-09-14T22:17:39.029Z,18.80
2022-09-14T22:20:09.071Z,18.81
2022-09-14T22:22:39.477Z,18.80
2022-09-14T22:25:08.881Z,18.84
2022-09-14T22:27:40.942Z,18.82
2022-09-14T22:30:11.383Z,18.73
2022-09-14T22:32:40.197Z,18.79
2022-09-14T22:35:09.793Z,18.75
2022-09-14T22:37:39.968Z,18.71
2022-09-14T22:40:09.761Z,18.68
2022-09-14T22:42:38.882Z,18.56
2022-09-14T22:45:08.575Z,18.55
2022-09-14T22:47:37.438Z,18.55
2022-09-14T22:50:06.973Z,18.54
2022-09-14T22:52:35.740Z,18.48
2022-09-14T22:55:06.690Z,18.41
2022-09-14T22:57:35.455Z,18.41
2022-09-14T23:00:05.707Z,18.33
2022-09-14T23:02:34.684Z,18.26
2022-09-14T23:05:04.025Z,18.26
2022-09-14T23:07:33.110Z,18.21
2022-09-14T23:10:01.872Z,18.16
2022-09-14T23:12:34.375Z,18.04
2022-09-14T23:15:03.257Z,18.10
2022-09-14T23:17:33.228Z,18.09
2022-09-14T23:20:02.094Z,18.07
2022-09-14T23:22:32.672Z,18.00
2022-09-14T23:25:01.484Z,17.97
2022-09-14T23:27:33.673Z,17.77
2022-09-14T23:30:02.595Z,17.76
2022-09-14T23:32:33.249Z,17.75
2022-09-14T23:35:02.255Z,17.72
2022-09-14T23:37:32.011Z,17.47
2022-09-14T23:40:00.816Z,17.57
2022-09-14T23:42:29.606Z,17.51
2022-09-14T23:44:59.723Z,17.45
2022-09-14T23:47:28.440Z,17.53
2022-09-14T23:49:57.254Z,17.59
2022-09-14T23:52:26.171Z,17.76
2022-09-14T23:54:55.302Z,17.91
2022-09-14T23:57:24.129Z,17.99
2022-09-14T23:59:52.786Z,17.97
